2019/03/26 14:30 VVNB 261430Z 07004KT 030V100 4700 BR FEW014 BKN016 21/21 Q1016 NOSIG
2019/03/26 14:30 VVDN 261430Z 24001KT 9999 FEW015 25/22 Q1017 NOSIG
2019/03/26 14:30 VVTS 261430Z 12007KT 080V160 9999 FEW017 29/21 Q1012 NOSIG
2019/03/26 14:30 VVPB 261430Z VRB01KT 8000 FEW015 24/24 Q1016 NOSIG

Powered by MinhViet JSC.